createdAt,value
2022-10-05T00:00:55.942Z,5.00
2022-10-05T00:03:26.808Z,5.55
2022-10-05T00:05:53.687Z,5.28
2022-10-05T00:08:23.685Z,5.00
2022-10-05T00:10:51.248Z,4.97
2022-10-05T00:13:25.540Z,5.25
2022-10-05T00:16:07.848Z,5.22
2022-10-05T00:18:37.377Z,5.28
2022-10-05T00:21:34.127Z,4.88
2022-10-05T00:24:01.491Z,5.47
2022-10-05T00:26:32.983Z,4.70
2022-10-05T00:29:02.611Z,4.90
2022-10-05T00:31:35.011Z,4.82
2022-10-05T00:34:02.203Z,5.22
2022-10-05T00:36:28.766Z,5.60
2022-10-05T00:38:55.538Z,4.47
2022-10-05T00:41:40.865Z,5.47
2022-10-05T00:44:28.563Z,5.30
2022-10-05T00:47:13.903Z,4.78
2022-10-05T00:49:40.425Z,5.53
2022-10-05T00:52:36.023Z,5.22
2022-10-05T00:55:37.584Z,5.22
2022-10-05T00:58:48.039Z,4.57
2022-10-05T01:01:14.570Z,5.50
2022-10-05T01:04:20.632Z,5.18
2022-10-05T01:07:23.498Z,4.30
2022-10-05T01:10:11.679Z,4.82
2022-10-05T01:12:38.147Z,5.35
2022-10-05T01:15:33.814Z,5.03
2022-10-05T01:18:25.318Z,6.03
2022-10-05T01:21:04.262Z,5.28
2022-10-05T01:23:52.166Z,5.47
2022-10-05T01:26:46.518Z,5.75
2022-10-05T01:29:25.378Z,4.93
2022-10-05T01:32:14.316Z,4.95
2022-10-05T01:34:53.507Z,5.50
2022-10-05T01:37:29.289Z,5.55
2022-10-05T01:40:19.792Z,5.60
2022-10-05T01:43:01.232Z,5.47
2022-10-05T01:46:22.326Z,5.35
2022-10-05T01:48:54.711Z,5.45
2022-10-05T01:51:33.394Z,5.15
2022-10-05T01:54:11.301Z,5.45
2022-10-05T01:56:59.216Z,5.47
2022-10-05T01:59:34.487Z,5.15
2022-10-05T02:02:07.694Z,5.70
2022-10-05T02:05:01.625Z,5.32
2022-10-05T02:07:50.631Z,5.50
2022-10-05T02:10:31.007Z,5.75
2022-10-05T02:13:14.536Z,5.50
2022-10-05T02:15:49.883Z,6.13
2022-10-05T02:18:21.343Z,5.82
2022-10-05T02:20:51.269Z,5.88
2022-10-05T02:23:25.859Z,6.45
2022-10-05T02:25:55.232Z,5.93
2022-10-05T02:28:32.232Z,6.05
2022-10-05T02:31:15.136Z,6.00
2022-10-05T02:33:41.971Z,6.10
2022-10-05T02:36:16.005Z,5.80
2022-10-05T02:39:06.864Z,6.45
2022-10-05T02:42:07.456Z,5.82
2022-10-05T02:44:54.476Z,6.47
2022-10-05T02:47:59.755Z,6.03
2022-10-05T02:50:50.036Z,6.25
2022-10-05T02:53:28.548Z,6.47
2022-10-05T02:56:14.003Z,6.35
2022-10-05T02:59:11.072Z,5.85
2022-10-05T03:01:48.441Z,6.70
2022-10-05T03:04:46.831Z,5.72
2022-10-05T03:07:25.001Z,6.55
2022-10-05T03:09:51.462Z,6.63
2022-10-05T03:12:45.984Z,6.47
2022-10-05T03:15:42.584Z,6.22
2022-10-05T03:18:57.196Z,6.20
2022-10-05T03:22:01.832Z,6.18
2022-10-05T03:24:46.907Z,6.03
2022-10-05T03:27:49.029Z,7.28
2022-10-05T03:30:21.855Z,6.63
2022-10-05T03:33:11.022Z,6.85
2022-10-05T03:35:43.623Z,6.93
2022-10-05T03:38:28.770Z,6.50
2022-10-05T03:41:13.303Z,6.10
2022-10-05T03:43:42.493Z,5.72
2022-10-05T03:46:18.818Z,6.18
2022-10-05T03:49:22.527Z,6.30
2022-10-05T03:51:55.795Z,6.22
2022-10-05T03:54:32.851Z,6.00
2022-10-05T03:57:12.057Z,6.40
2022-10-05T03:59:57.048Z,6.63
2022-10-05T04:02:33.224Z,6.47
2022-10-05T04:05:17.343Z,6.38
2022-10-05T04:08:15.694Z,6.45
2022-10-05T04:10:48.376Z,6.65
2022-10-05T04:13:27.286Z,6.75
2022-10-05T04:16:06.133Z,6.00
2022-10-05T04:18:38.434Z,6.65
2022-10-05T04:21:23.706Z,6.10
2022-10-05T04:24:00.070Z,5.55
2022-10-05T04:26:43.767Z,6.10
2022-10-05T04:29:25.090Z,5.82
2022-10-05T04:32:16.105Z,5.97
2022-10-05T04:35:10.007Z,5.78
2022-10-05T04:37:50.265Z,5.97
2022-10-05T04:40:25.810Z,6.88
2022-10-05T04:43:13.455Z,5.97
2022-10-05T04:46:15.895Z,5.78
2022-10-05T04:49:12.726Z,7.15
2022-10-05T04:51:51.440Z,6.07
2022-10-05T04:54:55.481Z,6.18
2022-10-05T04:57:34.495Z,6.22
2022-10-05T05:00:19.396Z,6.22
2022-10-05T05:03:18.694Z,6.75
2022-10-05T05:06:22.871Z,5.75
2022-10-05T05:08:58.516Z,5.63
2022-10-05T05:11:28.918Z,6.15
2022-10-05T05:14:22.903Z,5.38
2022-10-05T05:17:09.650Z,5.43
2022-10-05T05:19:51.438Z,5.75
2022-10-05T05:22:24.714Z,5.45
2022-10-05T05:25:02.358Z,5.55
2022-10-05T05:27:47.036Z,5.53
2022-10-05T05:30:51.533Z,5.35
2022-10-05T05:33:46.646Z,5.32
2022-10-05T05:36:22.195Z,4.93
2022-10-05T05:39:07.654Z,4.80
2022-10-05T05:41:39.617Z,5.32
2022-10-05T05:44:26.093Z,5.45
2022-10-05T05:47:05.036Z,4.72
2022-10-05T05:49:48.821Z,4.65
2022-10-05T05:52:32.172Z,4.40
2022-10-05T05:55:04.714Z,4.55
2022-10-05T05:57:38.645Z,5.63
2022-10-05T06:00:26.409Z,4.20
2022-10-05T06:03:14.853Z,4.75
2022-10-05T06:05:52.631Z,4.47
2022-10-05T06:08:35.937Z,5.07
2022-10-05T06:11:09.848Z,4.55
2022-10-05T06:13:42.322Z,4.40
2022-10-05T06:16:19.301Z,4.78
2022-10-05T06:18:54.759Z,5.35
2022-10-05T06:21:50.601Z,5.22
2022-10-05T06:25:02.483Z,5.00
2022-10-05T06:27:39.228Z,5.25
2022-10-05T06:30:07.919Z,5.00
2022-10-05T06:32:46.632Z,4.93
2022-10-05T06:35:29.396Z,4.88
2022-10-05T06:38:23.447Z,4.13
2022-10-05T06:41:31.890Z,5.10
2022-10-05T06:44:08.482Z,5.93
2022-10-05T06:46:43.861Z,4.72
2022-10-05T06:49:18.040Z,4.78
2022-10-05T06:52:02.586Z,6.53
2022-10-05T06:54:39.806Z,5.18
2022-10-05T06:57:41.874Z,5.05
2022-10-05T07:00:20.979Z,4.53
2022-10-05T07:02:56.408Z,3.78
2022-10-05T07:05:42.725Z,4.05
2022-10-05T07:08:30.596Z,5.90
2022-10-05T07:11:13.830Z,4.10
2022-10-05T07:14:03.377Z,5.55
2022-10-05T07:16:42.010Z,4.53
2022-10-05T07:19:30.484Z,4.03
2022-10-05T07:22:15.853Z,3.80
2022-10-05T07:24:58.228Z,3.47
2022-10-05T07:27:29.226Z,3.95
2022-10-05T07:30:04.712Z,3.58
2022-10-05T07:33:02.848Z,3.17
2022-10-05T07:36:09.844Z,3.13
2022-10-05T07:38:44.989Z,3.22
2022-10-05T07:41:29.693Z,3.08
2022-10-05T07:44:08.872Z,3.58
2022-10-05T07:46:50.428Z,6.93
2022-10-05T07:49:54.585Z,8.98
2022-10-05T07:52:38.854Z,4.45
2022-10-05T07:55:18.049Z,5.70
2022-10-05T07:58:04.809Z,3.55
2022-10-05T08:00:48.936Z,3.15
2022-10-05T08:03:38.343Z,4.40
2022-10-05T08:06:09.316Z,3.85
2022-10-05T08:08:35.885Z,4.53
2022-10-05T08:11:13.589Z,4.00
2022-10-05T08:13:53.386Z,3.63
2022-10-05T08:16:26.586Z,3.97
2022-10-05T08:19:00.183Z,3.58
2022-10-05T08:21:36.361Z,3.88
2022-10-05T08:24:11.134Z,3.90
2022-10-05T08:27:02.557Z,3.60
2022-10-05T08:29:40.035Z,3.58
2022-10-05T08:32:17.075Z,3.60
2022-10-05T08:35:12.932Z,3.45
2022-10-05T08:37:44.219Z,3.67
2022-10-05T08:40:52.903Z,3.42
2022-10-05T08:43:50.440Z,2.95
2022-10-05T08:46:42.618Z,3.83
2022-10-05T08:49:32.836Z,3.92
2022-10-05T08:52:10.565Z,4.53
2022-10-05T08:55:11.320Z,3.47
2022-10-05T08:58:03.936Z,3.30
2022-10-05T09:00:37.389Z,4.03
2022-10-05T09:03:32.150Z,3.90
2022-10-05T09:06:22.258Z,3.95
2022-10-05T09:09:26.600Z,3.40
2022-10-05T09:12:23.473Z,3.22
2022-10-05T09:15:35.267Z,3.00
2022-10-05T09:18:16.279Z,3.08
2022-10-05T09:20:53.153Z,3.20
2022-10-05T09:23:37.084Z,3.05
2022-10-05T09:26:12.527Z,2.72
2022-10-05T09:29:07.140Z,2.90
2022-10-05T09:31:55.291Z,3.10
2022-10-05T09:34:39.683Z,3.15
2022-10-05T09:37:26.138Z,2.67
2022-10-05T09:40:11.046Z,2.58
2022-10-05T09:42:54.299Z,2.53
2022-10-05T09:45:58.253Z,2.63
2022-10-05T09:48:46.143Z,3.08
2022-10-05T09:51:31.336Z,2.92
2022-10-05T09:54:23.026Z,2.90
2022-10-05T09:57:14.440Z,2.63
2022-10-05T09:59:56.214Z,2.80
2022-10-05T10:02:56.468Z,2.65
2022-10-05T10:05:47.155Z,3.28
2022-10-05T10:08:29.814Z,2.45
2022-10-05T10:11:18.322Z,2.40
2022-10-05T10:14:09.383Z,2.42
2022-10-05T10:16:57.883Z,2.65
2022-10-05T10:19:48.679Z,2.15
2022-10-05T10:22:24.281Z,2.58
2022-10-05T10:25:18.982Z,3.10
2022-10-05T10:27:52.354Z,3.00
2022-10-05T10:30:45.180Z,3.03
2022-10-05T10:33:44.017Z,4.78
2022-10-05T10:36:19.789Z,2.70
2022-10-05T10:39:08.936Z,2.50
2022-10-05T10:41:41.721Z,2.55
2022-10-05T10:44:32.979Z,2.60
2022-10-05T10:47:27.893Z,2.60
2022-10-05T10:50:14.047Z,2.13
2022-10-05T10:53:09.937Z,2.50
2022-10-05T10:55:52.029Z,2.25
2022-10-05T10:58:56.307Z,2.92
2022-10-05T11:01:38.684Z,3.00
2022-10-05T11:04:17.370Z,2.25
2022-10-05T11:06:52.904Z,2.70
2022-10-05T11:09:40.882Z,2.42
2022-10-05T11:12:35.207Z,2.53
2022-10-05T11:15:29.461Z,2.30
2022-10-05T11:17:58.846Z,2.97
2022-10-05T11:20:39.945Z,2.35
2022-10-05T11:23:24.909Z,5.85
2022-10-05T11:26:26.431Z,4.85
2022-10-05T11:29:17.283Z,5.40
2022-10-05T11:32:15.910Z,4.22
2022-10-05T11:35:27.444Z,2.60
2022-10-05T11:38:15.815Z,1.80
2022-10-05T11:41:33.985Z,1.92
2022-10-05T11:44:25.628Z,1.60
2022-10-05T11:47:13.092Z,1.85
2022-10-05T11:50:16.353Z,2.20
2022-10-05T11:52:52.299Z,1.60
2022-10-05T11:55:32.153Z,1.70
2022-10-05T11:58:07.487Z,1.50
2022-10-05T12:00:44.982Z,1.60
2022-10-05T12:03:11.664Z,1.33
2022-10-05T12:05:52.793Z,1.40
2022-10-05T12:09:07.520Z,1.23
2022-10-05T12:11:58.099Z,1.30
2022-10-05T12:14:33.739Z,1.20
2022-10-05T12:17:10.410Z,1.30
2022-10-05T12:19:45.773Z,1.52
2022-10-05T12:22:21.709Z,1.73
2022-10-05T12:25:03.148Z,1.70
2022-10-05T12:27:39.276Z,1.77
2022-10-05T12:30:18.525Z,1.55
2022-10-05T12:33:02.223Z,2.15
2022-10-05T12:35:48.163Z,1.27
2022-10-05T12:38:28.695Z,1.60
2022-10-05T12:41:17.160Z,1.25
2022-10-05T12:43:53.865Z,1.30
2022-10-05T12:46:46.746Z,0.98
2022-10-05T12:49:22.175Z,2.47
2022-10-05T12:52:01.753Z,1.40
2022-10-05T12:54:46.610Z,1.30
2022-10-05T12:57:40.970Z,1.30
2022-10-05T13:00:20.415Z,1.50
2022-10-05T13:02:52.951Z,1.38
2022-10-05T13:05:24.884Z,1.10
2022-10-05T13:08:06.286Z,1.40
2022-10-05T13:10:51.264Z,1.35
2022-10-05T13:13:41.639Z,1.30
2022-10-05T13:16:36.392Z,1.52
2022-10-05T13:19:39.309Z,1.40
2022-10-05T13:22:51.298Z,1.63
2022-10-05T13:25:17.975Z,1.42
2022-10-05T13:28:07.395Z,1.70
2022-10-05T13:30:37.427Z,1.67
2022-10-05T13:33:20.810Z,1.20
2022-10-05T13:35:59.136Z,1.50
2022-10-05T13:38:51.704Z,1.40
2022-10-05T13:41:30.348Z,1.40
2022-10-05T13:44:16.665Z,2.50
2022-10-05T13:46:53.685Z,2.17
2022-10-05T13:49:37.047Z,1.25
2022-10-05T13:52:46.031Z,2.45
2022-10-05T13:55:21.924Z,1.40
2022-10-05T13:58:06.039Z,1.75
2022-10-05T14:00:41.613Z,1.20
2022-10-05T14:03:32.485Z,1.30
2022-10-05T14:06:01.511Z,1.30
2022-10-05T14:08:32.309Z,1.23
2022-10-05T14:11:03.040Z,1.10
2022-10-05T14:13:44.273Z,1.00
2022-10-05T14:16:13.877Z,1.63
2022-10-05T14:19:04.272Z,3.42
2022-10-05T14:21:32.764Z,1.30
2022-10-05T14:24:32.068Z,1.30
2022-10-05T14:27:52.230Z,1.42
2022-10-05T14:30:25.784Z,1.10
2022-10-05T14:33:00.604Z,1.10
2022-10-05T14:35:54.744Z,1.30
2022-10-05T14:38:31.370Z,1.70
2022-10-05T14:41:19.461Z,1.42
2022-10-05T14:43:58.267Z,1.30
2022-10-05T14:46:29.904Z,1.35
2022-10-05T14:49:21.532Z,1.33
2022-10-05T14:51:49.845Z,1.30
2022-10-05T14:54:25.510Z,2.35
2022-10-05T14:57:04.124Z,1.70
2022-10-05T14:59:46.809Z,3.28
2022-10-05T15:02:40.166Z,1.10
2022-10-05T15:05:25.001Z,1.65
2022-10-05T15:07:57.269Z,1.85
2022-10-05T15:10:29.832Z,1.38
2022-10-05T15:13:11.640Z,2.22
2022-10-05T15:15:49.986Z,0.93
2022-10-05T15:18:43.986Z,1.30
2022-10-05T15:21:30.415Z,1.60
2022-10-05T15:24:13.307Z,1.25
2022-10-05T15:26:53.934Z,1.20
2022-10-05T15:29:38.920Z,1.20
2022-10-05T15:32:34.452Z,1.30
2022-10-05T15:35:14.107Z,1.13
2022-10-05T15:37:44.636Z,1.42
2022-10-05T15:40:45.748Z,1.30
2022-10-05T15:43:20.083Z,1.40
2022-10-05T15:46:07.601Z,1.45
2022-10-05T15:49:08.398Z,1.77
2022-10-05T15:51:50.795Z,0.85
2022-10-05T15:54:54.912Z,1.25
2022-10-05T15:57:32.924Z,1.20
2022-10-05T16:00:19.065Z,1.10
2022-10-05T16:03:08.711Z,1.20
2022-10-05T16:05:56.849Z,1.35
2022-10-05T16:08:49.213Z,1.30
2022-10-05T16:11:30.046Z,1.10
2022-10-05T16:14:22.390Z,1.10
2022-10-05T16:17:11.665Z,1.45
2022-10-05T16:20:03.291Z,1.42
2022-10-05T16:22:43.391Z,1.17
2022-10-05T16:25:31.673Z,1.15
2022-10-05T16:28:22.708Z,1.48
2022-10-05T16:30:58.888Z,1.13
2022-10-05T16:33:33.885Z,1.35
2022-10-05T16:36:16.391Z,1.40
2022-10-05T16:39:05.728Z,1.27
2022-10-05T16:42:14.118Z,1.77
2022-10-05T16:44:56.067Z,1.08
2022-10-05T16:47:27.626Z,1.10
2022-10-05T16:50:33.385Z,1.10
2022-10-05T16:53:21.354Z,1.58
2022-10-05T16:55:55.626Z,1.70
2022-10-05T16:58:28.331Z,1.25
2022-10-05T17:01:22.667Z,1.40
2022-10-05T17:03:54.071Z,1.25
2022-10-05T17:07:08.534Z,1.27
2022-10-05T17:10:15.071Z,1.20
2022-10-05T17:12:56.740Z,1.35
2022-10-05T17:15:32.623Z,1.40
2022-10-05T17:18:28.462Z,1.17
2022-10-05T17:21:03.404Z,2.17
2022-10-05T17:23:56.637Z,1.15
2022-10-05T17:26:23.097Z,1.23
2022-10-05T17:29:00.320Z,3.20
2022-10-05T17:31:31.979Z,2.38
2022-10-05T17:34:16.813Z,2.40
2022-10-05T17:36:51.314Z,1.55
2022-10-05T17:39:21.442Z,1.48
2022-10-05T17:41:48.577Z,2.10
2022-10-05T17:44:21.351Z,1.95
2022-10-05T17:46:49.093Z,1.50
2022-10-05T17:49:18.370Z,1.60
2022-10-05T17:52:03.451Z,1.70
2022-10-05T17:54:50.800Z,1.85
2022-10-05T17:57:27.912Z,2.03
2022-10-05T17:59:57.245Z,1.52
2022-10-05T18:02:38.542Z,2.50
2022-10-05T18:05:20.718Z,1.70
2022-10-05T18:08:07.996Z,1.98
2022-10-05T18:10:37.850Z,1.73
2022-10-05T18:13:43.876Z,2.17
2022-10-05T18:16:10.821Z,1.65
2022-10-05T18:18:43.679Z,1.60
2022-10-05T18:21:20.510Z,1.98
2022-10-05T18:23:52.978Z,3.22
2022-10-05T18:26:37.772Z,2.47
2022-10-05T18:29:39.141Z,2.17
2022-10-05T18:32:34.979Z,1.73
2022-10-05T18:35:14.751Z,1.73
2022-10-05T18:37:53.440Z,1.58
2022-10-05T18:40:38.406Z,1.85
2022-10-05T18:43:26.748Z,1.70
2022-10-05T18:45:56.386Z,1.73
2022-10-05T18:48:48.402Z,2.03
2022-10-05T18:51:48.370Z,1.75
2022-10-05T18:54:29.936Z,1.58
2022-10-05T18:57:00.946Z,1.88
2022-10-05T18:59:38.457Z,1.65
2022-10-05T19:02:36.479Z,2.05
2022-10-05T19:05:47.913Z,1.50
2022-10-05T19:08:21.901Z,1.63
2022-10-05T19:10:56.572Z,1.70
2022-10-05T19:14:17.606Z,1.75
2022-10-05T19:16:47.005Z,1.77
2022-10-05T19:19:39.619Z,2.40
2022-10-05T19:22:47.937Z,2.20
2022-10-05T19:25:58.796Z,2.00
2022-10-05T19:28:34.997Z,1.70
2022-10-05T19:31:18.023Z,1.90
2022-10-05T19:33:47.602Z,1.92
2022-10-05T19:36:31.967Z,2.05
2022-10-05T19:39:17.245Z,2.10
2022-10-05T19:42:16.309Z,2.20
2022-10-05T19:44:57.940Z,2.75
2022-10-05T19:48:02.189Z,2.60
2022-10-05T19:50:31.499Z,2.00
2022-10-05T19:53:17.159Z,2.10
2022-10-05T19:55:47.148Z,1.98
2022-10-05T19:58:19.484Z,2.00
2022-10-05T20:00:54.527Z,2.05
2022-10-05T20:03:32.397Z,2.30
2022-10-05T20:06:03.156Z,2.10
2022-10-05T20:08:45.120Z,1.92
2022-10-05T20:11:16.764Z,2.38
2022-10-05T20:13:49.624Z,2.47
2022-10-05T20:16:34.748Z,2.38
2022-10-05T20:19:47.462Z,2.17
2022-10-05T20:22:46.509Z,2.25
2022-10-05T20:25:18.902Z,2.15
2022-10-05T20:27:51.306Z,2.35
2022-10-05T20:30:23.216Z,1.90
2022-10-05T20:32:51.464Z,1.90
2022-10-05T20:35:21.625Z,1.98
2022-10-05T20:37:50.713Z,1.90
2022-10-05T20:40:19.221Z,2.15
2022-10-05T20:42:46.700Z,2.15
2022-10-05T20:45:14.173Z,1.80
2022-10-05T20:47:42.160Z,2.58
2022-10-05T20:50:10.528Z,2.42
2022-10-05T20:52:37.677Z,2.30
2022-10-05T20:55:09.933Z,2.22
2022-10-05T20:57:41.531Z,1.90
2022-10-05T21:00:12.789Z,2.30
2022-10-05T21:02:39.753Z,2.13
2022-10-05T21:05:07.735Z,2.08
2022-10-05T21:07:36.943Z,1.95
2022-10-05T21:10:04.880Z,2.00
2022-10-05T21:12:32.766Z,2.00
2022-10-05T21:14:59.932Z,2.10
2022-10-05T21:17:26.486Z,2.17
2022-10-05T21:19:53.020Z,1.83
2022-10-05T21:22:19.619Z,1.60
2022-10-05T21:24:46.139Z,1.85
2022-10-05T21:27:12.677Z,2.03
2022-10-05T21:29:41.283Z,1.67
2022-10-05T21:32:11.473Z,1.25
2022-10-05T21:34:39.196Z,1.73
2022-10-05T21:37:05.787Z,1.52
2022-10-05T21:39:33.628Z,1.17
2022-10-05T21:42:02.624Z,1.38
2022-10-05T21:44:31.390Z,1.17
2022-10-05T21:47:04.312Z,1.20
2022-10-05T21:49:31.218Z,1.17
2022-10-05T21:52:00.842Z,1.42
2022-10-05T21:54:28.665Z,1.00
2022-10-05T21:56:57.375Z,1.13
2022-10-05T21:59:31.284Z,1.00
2022-10-05T22:02:00.042Z,0.70
2022-10-05T22:04:26.638Z,0.90
2022-10-05T22:06:54.644Z,0.95
2022-10-05T22:09:21.233Z,0.70
2022-10-05T22:11:48.430Z,0.80
2022-10-05T22:14:17.728Z,0.70
2022-10-05T22:16:47.339Z,1.15
2022-10-05T22:19:18.088Z,0.60
2022-10-05T22:21:44.685Z,0.93
2022-10-05T22:24:14.102Z,0.73
2022-10-05T22:26:43.875Z,0.65
2022-10-05T22:29:10.519Z,0.73
2022-10-05T22:31:37.925Z,0.90
2022-10-05T22:34:04.803Z,0.80
2022-10-05T22:36:33.471Z,0.70
2022-10-05T22:39:02.456Z,0.52
2022-10-05T22:41:29.027Z,0.80
2022-10-05T22:43:57.939Z,0.90
2022-10-05T22:46:24.496Z,0.80
2022-10-05T22:48:51.343Z,0.70
2022-10-05T22:51:17.935Z,1.00
2022-10-05T22:53:46.752Z,0.70
2022-10-05T22:56:16.667Z,0.70
2022-10-05T22:58:44.536Z,0.82
2022-10-05T23:01:13.946Z,0.75
2022-10-05T23:03:40.926Z,0.93
2022-10-05T23:06:16.714Z,0.95
2022-10-05T23:08:44.428Z,0.77
2022-10-05T23:11:16.607Z,1.50
2022-10-05T23:13:45.379Z,0.80
2022-10-05T23:16:17.903Z,1.50
2022-10-05T23:18:46.912Z,1.02
2022-10-05T23:21:17.244Z,0.95
2022-10-05T23:23:48.966Z,1.20
2022-10-05T23:26:17.231Z,0.95
2022-10-05T23:28:47.488Z,0.95
2022-10-05T23:31:16.853Z,1.25
2022-10-05T23:33:43.967Z,1.00
2022-10-05T23:36:19.417Z,1.05
2022-10-05T23:38:46.467Z,1.10
2022-10-05T23:41:13.601Z,1.30
2022-10-05T23:43:43.285Z,1.40
2022-10-05T23:46:12.526Z,0.88
2022-10-05T23:48:39.543Z,1.40
2022-10-05T23:51:11.162Z,1.30
2022-10-05T23:53:40.253Z,1.45
2022-10-05T23:56:07.131Z,1.25
2022-10-05T23:58:33.717Z,1.30
